Time;durP1;ratioP1;P1;durP2;ratioP2;P2;SDS_P1;SDS_P2;PMS_P1;PMS_P2;Temp;Humidity;BMP_temperature;BMP_pressure;BME280_temperature;BME280_humidity;BME280_pressure;Samples;Min_cycle;Max_cycle;Signal;HPM_P1;HPM_P2
2022/07/14 00:02:18;;;;;;;8.90;2.30;;;21.00;96.20;;;;;;5071783;28;20037;-84
2022/07/14 00:04:44;;;;;;;10.52;3.13;;;21.00;96.10;;;;;;5071626;28;20029;-84
2022/07/14 00:07:10;;;;;;;9.82;2.70;;;21.00;96.10;;;;;;5070048;28;20032;-84
2022/07/14 00:09:36;;;;;;;6.43;2.30;;;21.00;96.10;;;;;;5053039;28;20059;-83
2022/07/14 00:12:02;;;;;;;10.45;2.60;;;21.00;96.20;;;;;;5071394;28;20035;-84
2022/07/14 00:14:28;;;;;;;9.88;2.60;;;21.00;96.20;;;;;;5070068;28;20020;-84
2022/07/14 00:16:54;;;;;;;13.35;2.85;;;21.00;96.30;;;;;;5071223;28;20103;-84
2022/07/14 00:19:20;;;;;;;11.57;3.20;;;21.00;96.20;;;;;;5070995;28;20036;-84
2022/07/14 00:21:46;;;;;;;12.68;2.55;;;21.00;96.20;;;;;;5071518;28;20033;-84
2022/07/14 00:24:12;;;;;;;12.00;3.28;;;21.00;96.20;;;;;;5071122;28;20473;-85
2022/07/14 00:26:39;;;;;;;12.38;2.83;;;20.90;96.10;;;;;;5071035;28;20044;-84
2022/07/14 00:29:06;;;;;;;13.15;2.92;;;20.80;96.20;;;;;;5052761;28;20032;-84
2022/07/14 00:31:32;;;;;;;11.65;3.10;;;20.90;96.30;;;;;;5071173;28;20025;-83
2022/07/14 00:33:59;;;;;;;15.02;3.22;;;20.80;96.30;;;;;;5071134;28;20029;-84
2022/07/14 00:36:29;;;;;;;15.43;3.03;;;20.70;96.40;;;;;;5069696;28;20111;-84
2022/07/14 00:38:55;;;;;;;12.07;2.67;;;20.60;96.60;;;;;;5070796;28;20111;-84
2022/07/14 00:41:22;;;;;;;10.02;2.63;;;20.60;96.70;;;;;;5069751;28;20024;-84
2022/07/14 00:43:47;;;;;;;11.23;2.53;;;20.60;96.90;;;;;;5052261;28;20119;-84
2022/07/14 00:46:13;;;;;;;11.38;2.80;;;20.60;96.90;;;;;;5070801;28;20099;-84
2022/07/14 00:48:39;;;;;;;11.25;2.47;;;20.60;97.00;;;;;;5052940;28;20373;-84
2022/07/14 00:51:06;;;;;;;13.45;3.50;;;20.60;97.00;;;;;;5052823;28;20078;-84
2022/07/14 00:53:31;;;;;;;10.15;2.83;;;20.60;97.00;;;;;;5070802;28;20115;-85
2022/07/14 00:55:57;;;;;;;8.77;2.63;;;20.60;97.00;;;;;;5070531;28;20112;-84
2022/07/14 00:58:23;;;;;;;11.63;2.50;;;20.60;97.00;;;;;;5052888;28;20047;-84
2022/07/14 01:00:49;;;;;;;10.68;3.00;;;20.60;97.10;;;;;;5052702;28;20495;-84
2022/07/14 01:03:15;;;;;;;14.85;2.80;;;20.60;97.00;;;;;;5070648;28;20149;-84
2022/07/14 01:05:41;;;;;;;11.35;2.58;;;20.50;97.10;;;;;;5070553;28;20059;-85
2022/07/14 01:08:07;;;;;;;12.20;3.38;;;20.50;97.50;;;;;;5052566;28;20082;-85
2022/07/14 01:10:33;;;;;;;9.93;2.55;;;20.50;97.20;;;;;;5070300;28;20025;-85
2022/07/14 01:13:01;;;;;;;10.10;2.80;;;20.50;97.20;;;;;;5069455;28;20484;-84
2022/07/14 01:15:28;;;;;;;11.75;2.92;;;20.50;97.30;;;;;;5070730;28;20503;-85
2022/07/14 01:17:54;;;;;;;10.40;2.70;;;20.40;97.30;;;;;;5069377;28;20025;-85
2022/07/14 01:20:22;;;;;;;10.98;2.75;;;20.40;97.40;;;;;;5070254;28;20033;-85
2022/07/14 01:22:48;;;;;;;9.73;2.65;;;20.50;97.50;;;;;;5070505;28;20017;-85
2022/07/14 01:25:16;;;;;;;14.27;2.92;;;20.40;97.30;;;;;;5069073;28;20036;-85
2022/07/14 01:27:42;;;;;;;12.32;3.13;;;20.40;97.40;;;;;;5068839;28;20067;-86
2022/07/14 01:30:08;;;;;;;10.20;2.40;;;20.40;97.40;;;;;;5068911;28;20029;-85
2022/07/14 01:32:35;;;;;;;11.00;3.15;;;20.40;97.50;;;;;;5069102;28;20527;-85
2022/07/14 01:35:02;;;;;;;10.77;3.15;;;20.40;97.50;;;;;;5070341;28;20104;-85
2022/07/14 01:37:28;;;;;;;9.55;2.67;;;20.40;97.40;;;;;;5070162;28;20024;-85
2022/07/14 01:39:54;;;;;;;11.93;3.35;;;20.40;97.40;;;;;;5052050;28;20400;-84
2022/07/14 01:42:19;;;;;;;9.93;2.85;;;20.30;97.40;;;;;;5052600;28;20119;-85
2022/07/14 01:44:46;;;;;;;13.68;3.10;;;20.20;97.50;;;;;;5068994;28;20039;-85
2022/07/14 01:47:13;;;;;;;10.80;3.65;;;20.10;97.70;;;;;;5068807;28;20024;-85
2022/07/14 01:49:39;;;;;;;13.23;3.35;;;20.10;97.80;;;;;;5051885;28;20036;-84
2022/07/14 01:52:07;;;;;;;17.27;3.60;;;20.10;98.00;;;;;;5068746;28;20561;-84
2022/07/14 01:54:35;;;;;;;15.02;3.88;;;20.10;98.00;;;;;;5071061;28;20488;-84
2022/07/14 01:57:01;;;;;;;13.93;3.22;;;20.10;98.00;;;;;;5072661;28;20028;-84
2022/07/14 01:59:29;;;;;;;11.98;3.65;;;20.10;98.10;;;;;;5056252;28;20024;-84
2022/07/14 02:01:58;;;;;;;11.83;2.67;;;20.10;98.10;;;;;;5073206;28;20135;-83
2022/07/14 02:04:24;;;;;;;16.52;3.35;;;20.00;98.20;;;;;;5072727;28;20080;-84
2022/07/14 02:06:52;;;;;;;17.30;3.83;;;20.00;98.30;;;;;;5072656;28;20028;-84
2022/07/14 02:12:25;;;;;;;11.35;2.72;;;20.00;98.40;;;;;;5072746;28;20066;-84
2022/07/14 02:14:51;;;;;;;12.48;3.17;;;20.00;98.20;;;;;;5072821;28;20039;-84
2022/07/14 02:17:17;;;;;;;11.43;2.90;;;19.90;98.40;;;;;;5073619;28;20396;-84
2022/07/14 02:19:43;;;;;;;14.63;3.47;;;19.90;98.40;;;;;;5072439;28;20496;-84
2022/07/14 02:22:08;;;;;;;12.65;3.40;;;19.90;98.50;;;;;;5073980;28;20025;-84
2022/07/14 02:24:35;;;;;;;12.55;2.75;;;19.90;98.50;;;;;;5072910;28;20374;-84
2022/07/14 02:27:01;;;;;;;9.90;2.70;;;19.80;98.40;;;;;;5072723;28;20423;-84
2022/07/14 02:29:27;;;;;;;11.23;3.10;;;19.90;98.40;;;;;;5071575;28;20047;-84
2022/07/14 02:31:53;;;;;;;13.20;3.83;;;19.90;98.40;;;;;;5071899;28;20024;-84
2022/07/14 02:34:19;;;;;;;12.68;2.97;;;19.90;98.10;;;;;;5055309;28;20021;-84
2022/07/14 02:36:44;;;;;;;14.10;3.35;;;19.90;98.20;;;;;;5071788;28;20617;-84
2022/07/14 02:39:12;;;;;;;10.10;2.65;;;19.80;98.20;;;;;;5055017;28;20042;-84
2022/07/14 02:41:40;;;;;;;11.70;2.88;;;19.90;98.30;;;;;;5055137;28;20039;-84
2022/07/14 02:44:06;;;;;;;12.18;3.15;;;19.90;98.20;;;;;;5071717;28;20082;-84
2022/07/14 02:46:31;;;;;;;15.20;2.85;;;19.80;98.20;;;;;;5054811;28;20428;-84
2022/07/14 02:48:58;;;;;;;11.68;2.90;;;19.80;98.20;;;;;;5071344;28;20033;-84
2022/07/14 02:51:25;;;;;;;10.32;2.80;;;19.80;98.20;;;;;;5071550;28;20547;-84
2022/07/14 02:53:51;;;;;;;9.57;2.80;;;19.80;98.20;;;;;;5055036;28;20029;-84
2022/07/14 02:56:17;;;;;;;12.75;3.22;;;19.80;98.20;;;;;;5071267;28;20028;-84
2022/07/14 02:58:45;;;;;;;12.77;3.38;;;19.70;98.40;;;;;;5054657;28;20161;-83
2022/07/14 03:01:13;;;;;;;;;;;19.70;98.50;;;;;;5055619;28;20118;-84
2022/07/14 03:03:40;;;;;;;13.95;3.20;;;19.70;98.40;;;;;;5071328;28;19915;-84
2022/07/14 03:06:17;;;;;;;10.80;2.40;;;19.70;98.50;;;;;;5070351;28;20033;-84
2022/07/14 03:08:47;;;;;;;14.13;2.75;;;19.60;98.40;;;;;;5070982;28;20029;-84
2022/07/14 03:11:14;;;;;;;12.68;3.55;;;19.60;98.50;;;;;;5054667;28;20039;-83
2022/07/14 03:13:41;;;;;;;11.98;3.00;;;19.60;98.50;;;;;;5071128;28;20020;-84
2022/07/14 03:16:09;;;;;;;13.30;3.25;;;19.60;98.50;;;;;;5070976;28;20032;-84
2022/07/14 03:18:39;;;;;;;11.77;2.88;;;19.60;98.40;;;;;;5070983;28;20025;-84
2022/07/14 03:21:14;;;;;;;12.13;3.08;;;19.50;98.60;;;;;;5070889;28;20032;-84
2022/07/14 03:23:45;;;;;;;12.90;3.25;;;19.50;98.60;;;;;;5070869;28;20116;-82
2022/07/14 03:26:16;;;;;;;10.70;3.03;;;19.50;98.50;;;;;;5070712;28;20032;-83
2022/07/14 03:28:42;;;;;;;11.70;2.58;;;19.50;98.60;;;;;;5071859;28;20028;-83
2022/07/14 03:31:11;;;;;;;13.15;3.17;;;19.50;98.70;;;;;;5070335;28;20025;-88
2022/07/14 03:33:41;;;;;;;11.45;2.92;;;19.40;98.60;;;;;;5057948;28;20029;-91
2022/07/14 03:36:10;;;;;;;17.27;3.55;;;19.50;98.70;;;;;;5071231;28;20349;-88
2022/07/14 03:39:00;;;;;;;11.57;2.80;;;19.50;98.60;;;;;;5072900;28;20086;-89
2022/07/14 03:41:43;;;;;;;15.00;3.20;;;19.50;98.60;;;;;;5071406;28;20051;-89
2022/07/14 03:44:48;;;;;;;;;;;;;;;;;;;;;
2022/07/14 03:47:42;;;;;;;12.80;3.20;;;19.50;98.60;;;;;;5017738;28;20039;-87
2022/07/14 03:50:10;;;;;;;14.30;3.42;;;19.40;98.60;;;;;;5068947;28;20115;-82
2022/07/14 03:52:36;;;;;;;19.02;4.60;;;19.40;98.70;;;;;;5069740;28;20386;-83
2022/07/14 03:55:03;;;;;;;15.85;3.65;;;19.40;98.70;;;;;;5056293;28;20024;-86
2022/07/14 03:57:33;;;;;;;12.60;3.45;;;19.40;98.70;;;;;;5076596;28;20028;-83
2022/07/14 03:59:59;;;;;;;13.07;3.65;;;19.40;98.80;;;;;;5069152;28;20044;-82
2022/07/14 04:02:25;;;;;;;14.52;3.58;;;19.40;98.90;;;;;;5069921;28;20021;-82
2022/07/14 04:04:51;;;;;;;15.30;3.17;;;19.30;98.80;;;;;;5068716;28;20085;-82
2022/07/14 04:07:17;;;;;;;14.93;3.53;;;19.30;98.90;;;;;;5068701;28;20492;-82
2022/07/14 04:09:43;;;;;;;14.93;3.72;;;19.30;98.90;;;;;;5051784;28;20056;-82
2022/07/14 04:12:11;;;;;;;16.15;3.83;;;19.30;98.90;;;;;;5068849;28;20120;-82
2022/07/14 04:14:38;;;;;;;16.55;3.90;;;19.30;98.90;;;;;;5069468;28;20020;-82
2022/07/14 04:17:04;;;;;;;13.48;3.53;;;19.30;98.70;;;;;;5069029;28;20027;-83
2022/07/14 04:19:30;;;;;;;16.95;3.55;;;19.30;98.80;;;;;;5068064;28;20039;-82
2022/07/14 04:21:56;;;;;;;15.98;4.10;;;19.30;98.80;;;;;;5068939;28;20037;-82
2022/07/14 04:24:22;;;;;;;12.18;3.03;;;19.30;98.90;;;;;;5070222;28;20096;-83
2022/07/14 04:26:48;;;;;;;14.07;3.28;;;19.20;98.90;;;;;;5068494;28;20028;-83
2022/07/14 04:29:13;;;;;;;13.05;3.58;;;19.30;98.90;;;;;;5068607;28;20032;-82
2022/07/14 04:31:40;;;;;;;18.63;3.70;;;19.20;98.80;;;;;;5052155;28;20047;-83
2022/07/14 04:34:08;;;;;;;14.80;3.92;;;19.20;98.80;;;;;;5067759;28;20477;-83
2022/07/14 04:36:36;;;;;;;13.35;3.40;;;19.20;99.00;;;;;;5068207;28;20119;-79
2022/07/14 04:39:07;;;;;;;18.08;4.53;;;19.10;99.10;;;;;;5068273;28;20024;-90
2022/07/14 04:41:38;;;;;;;17.83;3.72;;;19.10;99.10;;;;;;5068223;28;20032;-83
2022/07/14 04:44:04;;;;;;;14.95;4.03;;;19.10;99.10;;;;;;5068698;28;20082;-84
2022/07/14 04:46:31;;;;;;;15.32;4.15;;;19.10;99.20;;;;;;5051937;28;20040;-85
2022/07/14 04:52:02;;;;;;;15.30;3.40;;;19.10;99.10;;;;;;5068976;28;20029;-83
2022/07/14 04:54:33;;;;;;;11.43;2.97;;;19.20;99.10;;;;;;5068910;28;20052;-82
2022/07/14 04:57:34;;;;;;;14.75;4.15;;;19.10;99.10;;;;;;5057105;28;20056;-85
2022/07/14 05:00:04;;;;;;;;;;;19.10;99.10;;;;;;5077433;28;20024;-82
2022/07/14 05:02:30;;;;;;;16.70;3.45;;;19.10;99.20;;;;;;5079292;28;19909;-82
2022/07/14 05:04:56;;;;;;;15.63;3.70;;;19.10;99.10;;;;;;5088232;28;20028;-83
2022/07/14 05:07:23;;;;;;;12.68;3.65;;;19.00;99.10;;;;;;5088272;28;20031;-85
2022/07/14 05:09:54;;;;;;;14.82;3.47;;;19.00;99.20;;;;;;5091495;23;20068;-70
2022/07/14 05:12:20;;;;;;;17.13;3.85;;;19.00;99.30;;;;;;5068435;28;20040;-70
2022/07/14 05:14:47;;;;;;;20.83;3.97;;;19.00;99.20;;;;;;5051448;28;20028;-70
2022/07/14 05:17:14;;;;;;;16.45;3.38;;;19.00;99.30;;;;;;5051302;28;20097;-69
2022/07/14 05:19:42;;;;;;;15.07;3.20;;;18.90;99.10;;;;;;5050750;28;20404;-70
2022/07/14 05:22:09;;;;;;;16.15;3.67;;;18.90;99.30;;;;;;5051594;28;20032;-70
2022/07/14 05:24:35;;;;;;;13.93;3.28;;;19.00;99.20;;;;;;5051528;28;20304;-70
2022/07/14 05:27:01;;;;;;;12.80;3.85;;;18.90;99.00;;;;;;5051959;28;20031;-69
2022/07/14 05:29:29;;;;;;;14.43;4.03;;;19.00;99.20;;;;;;5053118;28;20507;-69
2022/07/14 05:31:57;;;;;;;14.93;3.67;;;19.00;99.20;;;;;;5055581;28;20433;-70
2022/07/14 05:34:23;;;;;;;13.60;4.17;;;19.10;99.10;;;;;;5054995;28;20029;-70
2022/07/14 05:36:50;;;;;;;17.88;3.92;;;19.10;99.10;;;;;;5055294;28;20314;-70
2022/07/14 05:39:16;;;;;;;13.75;3.53;;;19.20;99.00;;;;;;5055417;28;20068;-70
2022/07/14 05:41:42;;;;;;;13.82;3.33;;;19.20;98.70;;;;;;5055677;28;20119;-71
2022/07/14 05:44:08;;;;;;;16.75;3.90;;;19.20;98.50;;;;;;5055187;28;20085;-70
2022/07/14 05:46:34;;;;;;;17.52;3.38;;;19.30;98.40;;;;;;5055027;28;20032;-70
2022/07/14 05:49:01;;;;;;;14.07;3.63;;;19.30;98.20;;;;;;5054326;28;20032;-71
2022/07/14 05:51:27;;;;;;;14.95;3.67;;;19.30;98.30;;;;;;5054973;28;20029;-70
2022/07/14 05:53:54;;;;;;;17.25;3.85;;;19.30;98.20;;;;;;5054966;28;20563;-70
2022/07/14 05:56:22;;;;;;;16.08;4.05;;;19.30;98.20;;;;;;5054708;28;20024;-71
2022/07/14 05:58:49;;;;;;;13.13;3.08;;;19.30;98.20;;;;;;5054590;28;20028;-71
2022/07/14 06:01:17;;;;;;;21.92;3.75;;;19.30;98.20;;;;;;5054293;28;20020;-69
2022/07/14 06:03:44;;;;;;;16.38;3.95;;;19.40;98.30;;;;;;5054930;28;20032;-73
2022/07/14 06:06:10;;;;;;;11.48;3.08;;;19.40;98.00;;;;;;5054325;28;20384;-70
2022/07/14 06:08:38;;;;;;;17.00;3.42;;;19.40;98.10;;;;;;5054534;28;20065;-70
2022/07/14 06:11:04;;;;;;;16.70;3.72;;;19.50;98.00;;;;;;5054598;28;20062;-70
2022/07/14 06:13:32;;;;;;;16.70;3.42;;;19.50;97.90;;;;;;5054534;28;20037;-70
2022/07/14 06:15:59;;;;;;;17.75;3.47;;;19.50;97.70;;;;;;5054377;28;20066;-70
2022/07/14 06:18:27;;;;;;;18.40;3.20;;;19.50;97.90;;;;;;5054267;28;20516;-70
2022/07/14 06:20:54;;;;;;;13.37;3.90;;;19.50;97.80;;;;;;5053663;28;20028;-69
2022/07/14 06:23:20;;;;;;;16.00;3.33;;;19.60;98.00;;;;;;5054710;28;20051;-69
2022/07/14 06:25:46;;;;;;;13.82;3.53;;;19.50;97.70;;;;;;5054166;28;20036;-69
2022/07/14 06:28:17;;;;;;;19.15;4.43;;;19.60;97.80;;;;;;5053934;28;20032;-69
2022/07/14 06:30:44;;;;;;;18.48;3.40;;;19.70;98.60;;;;;;5053594;28;20476;-70
2022/07/14 06:33:09;;;;;;;18.48;3.58;;;19.70;98.30;;;;;;5053551;28;20024;-70
2022/07/14 06:35:40;;;;;;;19.00;4.47;;;19.60;97.70;;;;;;5053254;28;20453;-70
2022/07/14 06:38:07;;;;;;;14.45;4.05;;;19.70;97.60;;;;;;5053695;28;20100;-69
2022/07/14 06:40:33;;;;;;;17.40;5.43;;;19.60;97.80;;;;;;5052495;28;20021;-70
2022/07/14 06:42:59;;;;;;;19.02;5.65;;;19.50;97.80;;;;;;5053477;28;20032;-69
2022/07/14 06:45:48;;;;;;;15.20;3.58;;;19.50;98.10;;;;;;5070974;28;20512;-69
2022/07/14 06:48:18;;;;;;;18.67;4.50;;;19.40;98.40;;;;;;5071606;28;20113;-69
2022/07/14 06:50:44;;;;;;;17.27;4.32;;;19.40;98.30;;;;;;5052941;28;20086;-70
2022/07/14 06:53:10;;;;;;;14.77;3.78;;;19.40;98.20;;;;;;5054053;28;20385;-69
2022/07/14 06:55:36;;;;;;;15.90;3.22;;;19.40;98.30;;;;;;5071461;28;20032;-68
2022/07/14 06:58:02;;;;;;;15.40;3.30;;;19.40;98.40;;;;;;5068885;28;20443;-68
2022/07/14 07:00:29;;;;;;;12.77;3.10;;;19.40;98.40;;;;;;5050382;28;20029;-69
2022/07/14 07:02:55;;;;;;;17.35;3.92;;;19.50;98.40;;;;;;5065530;28;20028;-68
2022/07/14 07:08:06;;;;;;;17.30;3.40;;;19.50;98.30;;;;;;5070376;28;20107;-68
2022/07/14 07:10:32;;;;;;;15.48;3.03;;;19.50;97.80;;;;;;5070312;28;20080;-69
2022/07/14 07:12:59;;;;;;;14.82;3.42;;;19.50;98.00;;;;;;5070630;28;20116;-69
2022/07/14 07:15:25;;;;;;;14.43;3.15;;;19.50;97.90;;;;;;5052909;28;20048;-69
2022/07/14 07:17:51;;;;;;;13.77;2.65;;;19.50;97.70;;;;;;5070623;28;20024;-69
2022/07/14 07:20:17;;;;;;;18.45;3.83;;;19.50;97.90;;;;;;5069749;28;20132;-69
2022/07/14 07:22:43;;;;;;;11.05;2.83;;;19.40;97.90;;;;;;5070647;28;20362;-69
2022/07/14 07:25:11;;;;;;;12.73;2.65;;;19.50;98.00;;;;;;5070292;28;20032;-69
2022/07/14 07:27:39;;;;;;;21.38;3.65;;;19.50;97.70;;;;;;5070141;28;20059;-67
2022/07/14 07:30:06;;;;;;;12.57;2.97;;;19.50;97.90;;;;;;5069633;28;20082;-68
2022/07/14 07:32:32;;;;;;;14.25;2.75;;;19.60;98.30;;;;;;5070428;28;20025;-67
2022/07/14 07:34:58;;;;;;;13.50;3.30;;;19.60;97.80;;;;;;5069890;28;20376;-69
2022/07/14 07:37:24;;;;;;;11.93;2.78;;;19.60;97.30;;;;;;5069918;28;20127;-69
2022/07/14 07:39:50;;;;;;;10.88;2.00;;;19.70;96.30;;;;;;5069671;28;20081;-69
2022/07/14 07:42:15;;;;;;;10.15;2.53;;;19.70;96.20;;;;;;5070476;28;20032;-69
2022/07/14 07:44:41;;;;;;;11.15;2.35;;;19.80;95.70;;;;;;5070379;28;20053;-69
2022/07/14 07:47:07;;;;;;;9.38;2.40;;;19.80;95.50;;;;;;5070401;28;20077;-69
2022/07/14 07:49:33;;;;;;;11.70;2.45;;;19.80;95.20;;;;;;5068680;28;20047;-70
2022/07/14 07:52:00;;;;;;;12.52;2.42;;;19.90;95.20;;;;;;5069359;28;20484;-71
2022/07/14 07:54:27;;;;;;;8.98;2.13;;;19.90;94.10;;;;;;5068462;28;20025;-71
2022/07/14 07:56:54;;;;;;;10.75;2.33;;;19.90;94.30;;;;;;5068472;28;20021;-71
2022/07/14 07:59:20;;;;;;;9.25;1.83;;;20.00;93.10;;;;;;5068518;28;20028;-71
2022/07/14 08:01:46;;;;;;;8.80;2.30;;;20.00;93.20;;;;;;5068685;28;20032;-70
2022/07/14 08:04:14;;;;;;;11.30;2.33;;;20.00;93.20;;;;;;5067952;28;20028;-70
2022/07/14 08:06:40;;;;;;;12.65;2.92;;;20.00;93.90;;;;;;5068482;28;20445;-70
2022/07/14 08:09:11;;;;;;;9.45;2.22;;;20.00;93.90;;;;;;5069093;28;20186;-71
2022/07/14 08:11:38;;;;;;;9.13;2.35;;;20.10;94.30;;;;;;5070280;28;20029;-71
2022/07/14 08:14:04;;;;;;;12.25;2.67;;;20.10;94.60;;;;;;5051315;28;20070;-73
2022/07/14 08:16:30;;;;;;;10.70;2.17;;;20.20;93.40;;;;;;5069039;28;20025;-74
2022/07/14 08:18:56;;;;;;;6.45;1.90;;;20.30;92.60;;;;;;5069313;28;20056;-73
2022/07/14 08:21:23;;;;;;;8.30;1.98;;;20.30;90.70;;;;;;5069144;28;20051;-70
2022/07/14 08:23:50;;;;;;;7.68;1.85;;;20.30;90.90;;;;;;5069324;28;20499;-70
2022/07/14 08:26:16;;;;;;;9.10;2.08;;;20.40;91.40;;;;;;5051262;28;20037;-70
2022/07/14 08:28:42;;;;;;;8.80;1.83;;;20.40;91.10;;;;;;5068918;28;20040;-70
2022/07/14 08:31:08;;;;;;;7.22;1.75;;;20.40;90.20;;;;;;5069366;28;20024;-69
2022/07/14 08:33:34;;;;;;;8.38;1.88;;;20.50;91.10;;;;;;5069417;28;20093;-70
2022/07/14 08:36:00;;;;;;;7.63;2.00;;;20.50;90.10;;;;;;5068760;28;20437;-70
2022/07/14 08:38:26;;;;;;;7.07;1.80;;;20.50;90.70;;;;;;5069026;28;20050;-70
2022/07/14 08:40:52;;;;;;;7.40;1.77;;;20.60;90.60;;;;;;5068616;28;20337;-70
2022/07/14 08:43:18;;;;;;;9.15;1.73;;;20.60;90.70;;;;;;5069279;28;20052;-71
2022/07/14 08:45:46;;;;;;;13.65;1.75;;;20.60;89.40;;;;;;5069257;28;20024;-70
2022/07/14 08:48:14;;;;;;;9.48;1.75;;;20.60;87.40;;;;;;5068937;28;20047;-69
2022/07/14 08:50:40;;;;;;;7.60;2.13;;;20.60;86.40;;;;;;5068545;28;20154;-70
2022/07/14 08:53:09;;;;;;;8.48;2.35;;;20.60;86.70;;;;;;5069542;28;20107;-73
2022/07/14 08:55:35;;;;;;;10.25;2.22;;;20.60;85.40;;;;;;5069500;28;20036;-69
2022/07/14 08:58:01;;;;;;;10.05;2.60;;;20.60;84.10;;;;;;5051391;28;20033;-69
2022/07/14 09:00:27;;;;;;;7.40;2.08;;;20.60;86.50;;;;;;5066787;28;20392;-68
2022/07/14 09:02:55;;;;;;;7.35;2.33;;;20.60;89.20;;;;;;5068567;28;20480;-68
2022/07/14 09:05:21;;;;;;;6.00;1.90;;;20.50;87.80;;;;;;5068063;28;20031;-68
2022/07/14 09:07:56;;;;;;;8.02;2.33;;;20.50;88.70;;;;;;5068802;28;20473;-69
2022/07/14 09:10:25;;;;;;;7.72;2.45;;;20.50;85.50;;;;;;5068471;28;20035;-69
2022/07/14 09:13:07;;;;;;;5.82;1.40;;;20.50;84.50;;;;;;5050650;28;20555;-69
2022/07/14 09:15:45;;;;;;;6.00;1.90;;;20.60;86.00;;;;;;5068736;28;20031;-69
2022/07/14 09:18:27;;;;;;;8.02;1.85;;;20.60;87.30;;;;;;5068928;28;20031;-69
2022/07/14 09:20:55;;;;;;;7.32;1.60;;;20.60;86.00;;;;;;5068026;28;20104;-69
2022/07/14 09:23:33;;;;;;;10.02;3.30;;;20.60;86.00;;;;;;5068752;28;20616;-69
2022/07/14 09:26:19;;;;;;;7.93;3.05;;;20.70;83.50;;;;;;5068144;28;20035;-69
2022/07/14 09:28:48;;;;;;;8.85;3.03;;;20.70;84.30;;;;;;5067248;28;20028;-69
2022/07/14 09:31:25;;;;;;;8.57;2.70;;;20.80;85.40;;;;;;5067175;28;20036;-70
2022/07/14 09:33:59;;;;;;;5.47;1.70;;;20.80;86.50;;;;;;5067433;28;20545;-68
2022/07/14 09:36:33;;;;;;;7.75;2.63;;;20.80;85.00;;;;;;5067268;28;20082;-70
2022/07/14 09:39:07;;;;;;;10.13;2.28;;;20.80;82.90;;;;;;5067093;28;20082;-69
2022/07/14 09:41:49;;;;;;;6.93;2.28;;;20.70;85.70;;;;;;5067505;28;20021;-69
2022/07/14 09:44:17;;;;;;;6.95;1.50;;;20.70;86.60;;;;;;5069180;28;20033;-69
2022/07/14 09:46:51;;;;;;;10.57;1.85;;;20.70;84.20;;;;;;5069078;28;20101;-72
2022/07/14 09:49:19;;;;;;;5.82;1.70;;;20.70;84.00;;;;;;5063489;28;20079;-69
2022/07/14 09:51:55;;;;;;;7.93;1.92;;;20.80;83.30;;;;;;5068405;28;20035;-70
2022/07/14 09:54:45;;;;;;;7.63;1.83;;;20.80;84.20;;;;;;5068626;28;20059;-69
2022/07/14 09:57:13;;;;;;;5.95;1.75;;;20.80;84.50;;;;;;5068519;28;20082;-69
2022/07/14 09:59:51;;;;;;;4.07;1.20;;;20.80;80.50;;;;;;5068224;28;20033;-69
2022/07/14 10:02:21;;;;;;;6.17;1.47;;;20.90;79.30;;;;;;5068762;28;20059;-69
2022/07/14 10:04:50;;;;;;;6.60;1.58;;;21.00;78.80;;;;;;5068246;28;20259;-69
2022/07/14 10:07:18;;;;;;;6.90;1.90;;;21.10;77.80;;;;;;5068182;28;20036;-69
2022/07/14 10:09:54;;;;;;;7.00;1.38;;;21.10;78.60;;;;;;5067939;28;20033;-69
2022/07/14 10:12:23;;;;;;;4.82;1.50;;;21.10;77.40;;;;;;5068506;28;20021;-69
2022/07/14 10:14:49;;;;;;;;;;;21.10;78.20;;;;;;5069524;28;20059;-70
2022/07/14 10:17:16;;;;;;;8.85;1.73;;;21.20;78.00;;;;;;5071834;28;20373;-68
2022/07/14 10:19:44;;;;;;;6.50;1.95;;;21.20;78.20;;;;;;5071058;28;20043;-69
2022/07/14 10:22:10;;;;;;;10.70;2.95;;;21.30;78.00;;;;;;5071962;28;20060;-69
2022/07/14 10:24:36;;;;;;;6.15;2.45;;;21.30;77.70;;;;;;5071782;28;20075;-70
2022/07/14 10:27:03;;;;;;;9.88;2.10;;;21.30;78.90;;;;;;5071656;28;20563;-69
2022/07/14 10:29:29;;;;;;;5.57;1.58;;;21.30;78.80;;;;;;5053220;28;20035;-70
2022/07/14 10:32:26;;;;;;;8.63;1.88;;;21.40;78.00;;;;;;5053794;28;20032;-67
2022/07/14 10:34:59;;;;;;;6.18;1.83;;;21.40;78.80;;;;;;5071174;28;20477;-68
2022/07/14 10:37:42;;;;;;;6.50;1.98;;;21.40;78.60;;;;;;5052861;28;20411;-67
2022/07/14 10:40:36;;;;;;;6.60;2.05;;;21.40;77.80;;;;;;5070869;28;20040;-67
2022/07/14 10:43:11;;;;;;;10.02;2.00;;;21.40;78.30;;;;;;5072013;28;20128;-69
2022/07/14 10:45:52;;;;;;;8.82;2.08;;;21.50;78.60;;;;;;5071631;28;20373;-68
2022/07/14 10:48:32;;;;;;;8.38;1.70;;;21.60;79.00;;;;;;5071633;28;20399;-70
2022/07/14 10:51:26;;;;;;;7.93;1.70;;;21.70;78.30;;;;;;5070422;28;20044;-67
2022/07/14 10:54:19;;;;;;;8.65;2.35;;;21.70;77.10;;;;;;5071545;28;20032;-66
2022/07/14 10:56:46;;;;;;;8.68;2.05;;;21.70;77.50;;;;;;5071504;28;20048;-67
2022/07/14 10:59:27;;;;;;;7.95;1.80;;;21.80;77.30;;;;;;5070726;28;20029;-66
2022/07/14 11:02:14;;;;;;;8.50;2.05;;;21.80;77.70;;;;;;5071423;28;20056;-67
2022/07/14 11:05:04;;;;;;;6.40;1.75;;;21.80;78.40;;;;;;5071007;28;20047;-67
2022/07/14 11:07:44;;;;;;;6.10;1.30;;;21.90;75.80;;;;;;5069962;28;20112;-69
2022/07/14 11:10:20;;;;;;;6.43;1.80;;;22.00;76.20;;;;;;5050931;28;20043;-67
2022/07/14 11:13:04;;;;;;;5.90;1.63;;;22.00;76.90;;;;;;5097022;22;20060;-84
2022/07/14 11:15:49;;;;;;;6.32;1.67;;;22.10;77.60;;;;;;5088049;28;20039;-84
2022/07/14 11:18:18;;;;;;;7.40;1.63;;;22.20;76.90;;;;;;5090305;28;20027;-84
2022/07/14 11:20:59;;;;;;;8.25;1.77;;;22.20;75.40;;;;;;5088312;28;20262;-83
2022/07/14 11:23:36;;;;;;;5.72;1.65;;;22.20;75.40;;;;;;5090799;28;20119;-82
2022/07/14 11:26:27;;;;;;;10.50;2.53;;;22.20;75.30;;;;;;5089282;28;20549;-84
2022/07/14 11:28:52;;;;;;;8.45;2.08;;;22.20;74.00;;;;;;5089718;28;20120;-82
2022/07/14 11:31:21;;;;;;;11.27;1.80;;;22.30;75.00;;;;;;5088691;28;20103;-81
2022/07/14 11:36:35;;;;;;;5.82;1.60;;;22.30;74.40;;;;;;5088884;28;20077;-82
2022/07/14 11:39:16;;;;;;;5.53;1.50;;;22.30;74.90;;;;;;5088427;28;20560;-80
2022/07/14 11:41:47;;;;;;;5.53;1.35;;;22.30;75.00;;;;;;5089230;28;20112;-83
2022/07/14 11:44:40;;;;;;;5.30;1.90;;;22.40;72.30;;;;;;5090213;28;20036;-82
2022/07/14 11:47:17;;;;;;;7.35;2.22;;;22.50;71.50;;;;;;5087927;28;20058;-84
2022/07/14 11:49:58;;;;;;;7.93;1.83;;;22.50;72.70;;;;;;5087924;28;20105;-82
2022/07/14 11:52:43;;;;;;;4.65;1.50;;;22.60;72.50;;;;;;5089985;28;20028;-84
2022/07/14 11:55:15;;;;;;;4.82;1.60;;;22.60;72.00;;;;;;5089852;28;20039;-83
2022/07/14 11:57:52;;;;;;;9.68;2.13;;;22.60;72.80;;;;;;5089248;28;20112;-82
2022/07/14 12:00:18;;;;;;;7.10;1.45;;;22.70;72.50;;;;;;5089451;28;20027;-80
2022/07/14 12:02:52;;;;;;;7.45;2.42;;;22.70;72.60;;;;;;5089679;28;20039;-85
2022/07/14 12:05:20;;;;;;;4.30;1.60;;;22.80;72.90;;;;;;5089015;28;20057;-82
2022/07/14 12:07:48;;;;;;;5.10;1.50;;;22.80;72.40;;;;;;5089237;28;20176;-85
2022/07/14 12:10:17;;;;;;;8.13;1.40;;;22.80;70.30;;;;;;5087895;28;20515;-84
2022/07/14 12:12:45;;;;;;;7.43;2.08;;;22.90;69.90;;;;;;5070617;28;20024;-84
2022/07/14 12:18:04;;;;;;;6.97;1.55;;;23.00;70.40;;;;;;5028366;28;20072;-71
2022/07/14 12:20:42;;;;;;;5.43;2.17;;;23.10;69.60;;;;;;5020901;28;20032;-69
2022/07/14 12:23:09;;;;;;;4.03;1.23;;;23.30;70.10;;;;;;5030302;28;20022;-68
2022/07/14 12:25:42;;;;;;;5.88;1.45;;;23.30;69.00;;;;;;5029360;28;20040;-69
2022/07/14 12:28:10;;;;;;;6.15;1.73;;;23.40;68.60;;;;;;5029293;28;20385;-69
2022/07/14 12:30:47;;;;;;;;;;;23.40;68.60;;;;;;5029568;28;20087;-69
2022/07/14 12:33:18;;;;;;;5.10;1.52;;;23.50;68.60;;;;;;5027951;28;19909;-69
2022/07/14 12:35:46;;;;;;;7.85;1.60;;;23.60;68.40;;;;;;5028658;28;20216;-69
2022/07/14 12:38:12;;;;;;;8.73;1.58;;;23.70;68.60;;;;;;5027369;28;20025;-69
2022/07/14 12:40:39;;;;;;;9.52;1.85;;;23.70;68.10;;;;;;5029142;28;20029;-69
2022/07/14 12:43:08;;;;;;;5.38;1.58;;;23.80;67.90;;;;;;5027860;28;20021;-68
2022/07/14 12:46:02;;;;;;;5.38;1.65;;;23.90;68.10;;;;;;5028905;28;20032;-68
2022/07/14 12:48:29;;;;;;;4.45;1.77;;;23.90;68.30;;;;;;5029093;28;20037;-70
2022/07/14 12:50:56;;;;;;;4.72;1.30;;;24.00;68.40;;;;;;5028484;28;20025;-68
2022/07/14 12:53:22;;;;;;;6.65;1.25;;;24.00;68.60;;;;;;5029136;28;20096;-68
2022/07/14 12:55:48;;;;;;;5.60;1.70;;;24.10;68.60;;;;;;5027080;28;20554;-72
2022/07/14 12:58:15;;;;;;;4.93;1.20;;;24.10;68.20;;;;;;5027496;28;20068;-69
2022/07/14 13:00:45;;;;;;;7.97;2.05;;;24.00;68.00;;;;;;5028432;28;20391;-69
2022/07/14 13:03:16;;;;;;;5.63;1.67;;;24.00;68.60;;;;;;5028753;28;20087;-70
2022/07/14 13:05:57;;;;;;;6.03;1.90;;;23.90;69.20;;;;;;5028306;28;20030;-69
2022/07/14 13:08:34;;;;;;;7.38;1.73;;;23.90;69.60;;;;;;5028456;28;20037;-69
2022/07/14 13:11:03;;;;;;;7.05;1.90;;;23.90;69.20;;;;;;5028395;28;20191;-69